Time;durP1;ratioP1;P1;durP2;ratioP2;P2;SDS_P1;SDS_P2;PMS_P1;PMS_P2;Temp;Humidity;BMP_temperature;BMP_pressure;BME280_temperature;BME280_humidity;BME280_pressure;Samples;Min_cycle;Max_cycle;Signal;HPM_P1;HPM_P2
2021/08/12 00:00:19;;;;;;;0.70;0.70;;;;;;;17.04;100.00;-979.50;5049722;28;20512;-72
2021/08/12 00:02:46;;;;;;;0.70;0.70;;;;;;;16.97;100.00;-1794.38;5051887;28;20416;-72
2021/08/12 00:05:14;;;;;;;0.70;0.70;;;;;;;16.94;100.00;-2853.03;5052437;28;21034;-72
2021/08/12 00:07:41;;;;;;;0.70;0.60;;;;;;;16.90;100.00;-3753.53;5052509;28;20460;-72
2021/08/12 00:10:08;;;;;;;0.80;0.70;;;;;;;16.87;100.00;-4485.91;5042260;28;20876;-72
2021/08/12 00:12:40;;;;;;;0.77;0.70;;;;;;;16.80;100.00;-5172.22;5038141;28;20821;-72
2021/08/12 00:15:08;;;;;;;0.80;0.73;;;;;;;16.78;100.00;-5807.53;5052990;28;20760;-73
2021/08/12 00:17:35;;;;;;;0.70;0.60;;;;;;;16.86;100.00;-6565.03;5036365;28;20483;-73
2021/08/12 00:20:03;;;;;;;0.70;0.60;;;;;;;16.90;100.00;-7373.16;5036784;28;20549;-73
2021/08/12 00:22:32;;;;;;;0.80;0.73;;;;;;;16.94;100.00;-8023.66;5019260;28;20462;-72
2021/08/12 00:24:59;;;;;;;0.77;0.70;;;;;;;16.93;100.00;-8242.00;5052395;28;20790;-72
2021/08/12 00:27:48;;;;;;;0.80;0.80;;;;;;;16.83;100.00;-8591.81;5055953;28;20442;-72
2021/08/12 00:30:15;;;;;;;0.80;0.80;;;;;;;16.88;100.00;-8312.88;5056845;28;20446;-72
2021/08/12 00:32:43;;;;;;;1.57;1.47;;;;;;;16.89;100.00;-8211.31;5055668;28;20447;-72
2021/08/12 00:35:10;;;;;;;0.80;0.80;;;;;;;16.94;100.00;-7965.22;5054995;28;20980;-72
2021/08/12 00:37:59;;;;;;;0.80;0.70;;;;;;;16.90;100.00;-7749.09;5055895;28;20545;-73
2021/08/12 00:40:29;;;;;;;0.80;0.70;;;;;;;16.99;100.00;-7266.84;5037792;28;20435;-73
2021/08/12 00:42:59;;;;;;;0.80;0.70;;;;;;;17.01;100.00;-7145.00;5055024;28;20466;-73
2021/08/12 00:45:27;;;;;;;0.80;0.80;;;;;;;17.00;100.00;-6733.25;5039744;28;20523;-72
2021/08/12 00:47:55;;;;;;;0.80;0.70;;;;;;;16.87;100.00;-6636.22;5047389;28;20444;-73
2021/08/12 00:50:22;;;;;;;0.70;0.67;;;;;;;16.95;100.00;-6323.91;5055288;28;20448;-72
2021/08/12 00:52:50;;;;;;;0.70;0.70;;;;;;;17.00;100.00;-6069.91;5055276;28;20441;-72
2021/08/12 00:55:18;;;;;;;0.70;0.70;;;;;;;16.97;100.00;-6039.31;5019922;28;20913;-72
2021/08/12 00:57:46;;;;;;;0.70;0.70;;;;;;;16.85;100.00;-5942.44;5038828;28;20449;-72
2021/08/12 01:00:16;;;;;;;0.80;0.70;;;;;;;16.75;100.00;-5888.78;5054153;28;20937;-73
2021/08/12 01:02:43;;;;;;;0.77;0.70;;;;;;;16.77;100.00;-5690.63;5038044;28;21045;-73
2021/08/12 01:05:14;;;;;;;0.77;0.70;;;;;;;16.84;100.00;-5421.38;5038582;28;20942;-72
2021/08/12 01:07:53;;;;;;;0.80;0.70;;;;;;;16.83;100.00;-5355.28;5051645;28;20514;-73
2021/08/12 01:10:27;;;;;;;0.70;0.70;;;;;;;16.86;100.00;-4963.88;5030199;28;20944;-72
2021/08/12 01:13:02;;;;;;;0.70;0.70;;;;;;;16.82;100.00;-4740.09;5034715;28;20443;-72
2021/08/12 01:15:37;;;;;;;0.73;0.70;;;;;;;16.71;100.00;-4653.59;5053157;28;20440;-72
2021/08/12 01:18:10;;;;;;;0.70;0.70;;;;;;;16.63;100.00;-4539.19;5046782;28;20441;-73
2021/08/12 01:20:49;;;;;;;0.80;0.70;;;;;;;16.58;100.00;-4633.19;5035531;28;20434;-72
2021/08/12 01:23:19;;;;;;;0.80;0.70;;;;;;;16.63;100.00;-4668.81;5035943;28;20496;-72
2021/08/12 01:25:49;;;;;;;0.80;0.80;;;;;;;16.58;100.00;-4927.97;5037954;28;20469;-73
2021/08/12 01:28:26;;;;;;;0.80;0.70;;;;;;;16.66;100.00;-5075.44;5051936;28;20435;-73
2021/08/12 01:31:05;;;;;;;0.70;0.60;;;;;;;16.69;100.00;-5225.44;5036445;28;20562;-72
2021/08/12 01:33:42;;;;;;;0.80;0.70;;;;;;;16.67;100.00;-5085.63;5043112;28;20540;-72
2021/08/12 01:36:13;;;;;;;0.80;0.73;;;;;;;16.60;100.00;-5009.31;5037621;28;20913;-72
2021/08/12 01:38:44;;;;;;;0.70;0.70;;;;;;;16.61;100.00;-4651.00;5041960;28;20464;-72
2021/08/12 01:41:12;;;;;;;0.80;0.73;;;;;;;16.63;100.00;-4409.56;5033886;28;20461;-72
2021/08/12 01:43:40;;;;;;;0.70;0.70;;;;;;;16.63;100.00;-4173.19;5037159;28;20883;-72
2021/08/12 01:46:09;;;;;;;0.80;0.80;;;;;;;16.53;100.00;-4051.22;5051827;28;20611;-72
2021/08/12 01:48:36;;;;;;;1.80;1.70;;;;;;;16.44;100.00;-3880.97;5026299;28;21038;-72
2021/08/12 01:51:04;;;;;;;0.70;0.60;;;;;;;16.36;100.00;-3870.84;5037294;28;20447;-72
2021/08/12 01:53:34;;;;;;;0.70;0.70;;;;;;;16.33;100.00;-3789.56;5034430;28;20459;-72
2021/08/12 01:56:02;;;;;;;0.70;0.60;;;;;;;16.30;100.00;-3754.00;5052720;28;20491;-73
2021/08/12 01:58:31;;;;;;;0.70;0.60;;;;;;;16.26;100.00;-3718.47;5053789;28;20438;-72
2021/08/12 02:01:00;;;;;;;0.70;0.70;;;;;;;16.25;100.00;-3731.19;5053514;28;20451;-72
2021/08/12 02:03:29;;;;;;;0.80;0.70;;;;;;;16.22;100.00;-4091.94;5053447;28;20539;-72
2021/08/12 02:05:57;;;;;;;0.70;0.70;;;;;;;16.22;100.00;-3952.22;5037157;28;20467;-72
2021/08/12 02:08:25;;;;;;;0.70;0.70;;;;;;;16.28;100.00;-3970.00;5053598;28;20581;-72
2021/08/12 02:10:56;;;;;;;0.70;0.60;;;;;;;16.24;100.00;-4145.28;5036834;28;20461;-72
2021/08/12 02:13:28;;;;;;;0.80;0.70;;;;;;;16.31;100.00;-4013.16;5052419;28;20818;-72
2021/08/12 02:15:55;;;;;;;0.80;0.70;;;;;;;16.46;100.00;-3969.91;5036866;28;20438;-73
2021/08/12 02:18:23;;;;;;;0.80;0.77;;;;;;;16.54;100.00;-4290.09;5050700;28;20953;-72
2021/08/12 02:20:58;;;;;;;0.70;0.60;;;;;;;16.57;100.00;-4572.19;5034943;28;20444;-72
2021/08/12 02:23:30;;;;;;;0.80;0.80;;;;;;;16.57;100.00;-4943.19;5054342;28;20462;-72
2021/08/12 02:26:03;;;;;;;0.70;0.60;;;;;;;16.72;100.00;-4783.25;5036098;28;20474;-72
2021/08/12 02:28:32;;;;;;;0.70;0.70;;;;;;;16.77;100.00;-4816.34;5035910;28;20446;-72
2021/08/12 02:31:03;;;;;;;0.80;0.70;;;;;;;16.79;100.00;-4887.53;5031663;28;21143;-71
2021/08/12 02:33:34;;;;;;;0.70;0.60;;;;;;;16.79;100.00;-4755.34;5035604;28;20447;-72
2021/08/12 02:36:02;;;;;;;0.80;0.80;;;;;;;16.86;100.00;-4559.63;5053142;28;20416;-72
2021/08/12 02:38:31;;;;;;;0.70;0.70;;;;;;;16.88;100.00;-4455.41;5045137;28;20467;-72
2021/08/12 02:41:00;;;;;;;0.80;0.80;;;;;;;16.95;100.00;-4351.16;5047787;28;20443;-72
2021/08/12 02:43:30;;;;;;;0.80;0.70;;;;;;;16.96;100.00;-4201.13;5052601;28;20470;-72
2021/08/12 02:46:00;;;;;;;0.80;0.80;;;;;;;17.00;100.00;-4063.78;5050109;28;20485;-73
2021/08/12 02:48:29;;;;;;;0.80;0.80;;;;;;;17.13;100.00;-3951.78;5060240;28;20457;-72
2021/08/12 02:50:58;;;;;;;0.80;0.80;;;;;;;17.20;100.00;-3715.13;5033561;28;20445;-72
2021/08/12 02:53:27;;;;;;;0.70;0.60;;;;;;;17.24;100.00;-3587.84;5032903;28;20525;-72
2021/08/12 02:55:56;;;;;;;0.70;0.60;;;;;;;17.35;100.00;-3381.56;5052510;28;20432;-72
2021/08/12 02:58:30;;;;;;;0.70;0.60;;;;;;;17.41;100.00;-3325.47;5054016;28;20882;-72
2021/08/12 03:00:58;;;;;;;0.70;0.60;;;;;;;17.44;100.00;-3198.16;5038193;28;20557;-72
2021/08/12 03:03:30;;;;;;;0.70;0.60;;;;;;;17.43;100.00;-3007.22;5042525;28;20492;-72
2021/08/12 03:05:58;;;;;;;0.80;0.80;;;;;;;17.39;100.00;-2724.69;5054015;28;20480;-73
2021/08/12 03:08:27;;;;;;;0.70;0.60;;;;;;;17.34;100.00;-2503.31;5050356;28;20513;-72
2021/08/12 03:10:54;;;;;;;0.70;0.63;;;;;;;17.23;100.00;-2447.63;5051912;28;20472;-72
2021/08/12 03:13:22;;;;;;;0.80;0.70;;;;;;;17.15;100.00;-2577.66;5035752;28;20486;-72
2021/08/12 03:15:51;;;;;;;0.70;0.70;;;;;;;17.22;100.00;-2363.66;5051693;28;20453;-72
2021/08/12 03:18:19;;;;;;;0.80;0.70;;;;;;;17.27;100.00;-2360.94;5040891;28;20951;-72
2021/08/12 03:20:46;;;;;;;0.70;0.63;;;;;;;17.22;100.00;-2078.53;5033190;28;20433;-72
2021/08/12 03:23:13;;;;;;;0.70;0.60;;;;;;;17.16;100.00;-1956.53;5039645;28;21040;-72
2021/08/12 03:25:40;;;;;;;0.70;0.70;;;;;;;17.20;100.00;-1808.75;5052565;28;20953;-72
2021/08/12 03:28:08;;;;;;;0.70;0.70;;;;;;;17.18;100.00;-1875.00;5052137;28;20470;-72
2021/08/12 03:30:35;;;;;;;0.70;0.70;;;;;;;17.22;100.00;-1711.91;5051619;28;20433;-72
2021/08/12 03:33:04;;;;;;;0.70;0.60;;;;;;;17.25;100.00;-1831.44;5051991;28;20477;-72
2021/08/12 03:35:32;;;;;;;0.80;0.70;;;;;;;17.30;100.00;-1828.72;5045869;28;20509;-73
2021/08/12 03:37:59;;;;;;;0.70;0.60;;;;;;;17.32;100.00;-1675.81;5032963;28;20547;-72
2021/08/12 03:40:26;;;;;;;0.70;0.70;;;;;;;17.32;100.00;-1505.19;5051570;28;20529;-72
2021/08/12 03:42:53;;;;;;;0.70;0.70;;;;;;;17.35;100.00;-1207.09;5051132;28;20846;-72
2021/08/12 03:45:21;;;;;;;0.70;0.70;;;;;;;17.34;100.00;-972.78;5042304;28;20482;-73
2021/08/12 03:47:48;;;;;;;0.70;0.70;;;;;;;17.30;100.00;-932.25;5051714;28;20474;-72
2021/08/12 03:50:17;;;;;;;0.70;0.60;;;;;;;17.28;100.00;-896.69;5051783;28;20443;-72
2021/08/12 03:52:44;;;;;;;0.70;0.70;;;;;;;16.75;100.00;-2164.09;5044237;28;20484;-72
2021/08/12 03:55:11;;;;;;;0.70;0.70;;;;;;;16.65;100.00;-4173.19;5035340;28;20456;-72
2021/08/12 03:57:42;;;;;;;0.70;0.70;;;;;;;16.58;100.00;-6294.78;5052079;28;20515;-72
2021/08/12 04:00:12;;;;;;;0.70;0.70;;;;;;;16.79;100.00;-7824.69;5051245;28;20436;-71
2021/08/12 04:02:44;;;;;;;0.70;0.70;;;;;;;16.82;100.00;-9251.88;5042705;28;20933;-72
2021/08/12 04:05:12;;;;;;;0.70;0.70;;;;;;;16.78;100.00;-10690.59;5050192;28;20442;-72
2021/08/12 04:07:40;;;;;;;0.70;0.60;;;;;;;16.97;100.00;-10986.94;5052855;28;20459;-72
2021/08/12 04:10:09;;;;;;;0.70;0.60;;;;;;;17.00;100.00;-11007.59;5040087;28;20845;-71
2021/08/12 04:12:36;;;;;;;0.70;0.70;;;;;;;17.02;100.00;-10896.13;5052565;28;20440;-70
2021/08/12 04:15:05;;;;;;;0.70;0.60;;;;;;;17.06;100.00;-10404.03;5051528;28;20787;-71
2021/08/12 04:17:33;;;;;;;0.70;0.70;;;;;;;17.06;100.00;-9741.41;5049453;28;20451;-71
2021/08/12 04:20:01;;;;;;;0.70;0.70;;;;;;;17.00;100.00;-9253.34;5022643;28;20451;-72
2021/08/12 04:22:29;;;;;;;0.70;0.60;;;;;;;16.98;100.00;-8976.34;5032440;28;20855;-73
2021/08/12 04:24:58;;;;;;;0.70;0.60;;;;;;;16.73;100.00;-9268.91;5050221;28;20442;-74
2021/08/12 04:27:25;;;;;;;0.70;0.70;;;;;;;16.74;100.00;-9804.56;5034584;28;20499;-72
2021/08/12 04:29:51;;;;;;;0.70;0.60;;;;;;;16.96;100.00;-9811.59;5038473;28;20959;-73
2021/08/12 04:32:19;;;;;;;1.23;1.13;;;;;;;17.08;100.00;-9408.91;5031789;28;20452;-72
2021/08/12 04:34:46;;;;;;;0.70;0.70;;;;;;;17.26;100.00;-8592.28;5032388;28;20439;-73
2021/08/12 04:37:13;;;;;;;0.70;0.60;;;;;;;17.29;100.00;-7819.88;5041042;28;20435;-73
2021/08/12 04:39:40;;;;;;;0.70;0.70;;;;;;;17.37;100.00;-6922.91;5014802;28;20474;-73
2021/08/12 04:42:08;;;;;;;0.70;0.70;;;;;;;17.42;100.00;-6155.06;5040172;28;20795;-73
2021/08/12 04:44:35;;;;;;;0.70;0.63;;;;;;;17.44;100.00;-5315.63;5030052;28;20455;-73
2021/08/12 04:47:03;;;;;;;0.70;0.60;;;;;;;17.37;100.00;-4722.72;5038792;28;20512;-73
2021/08/12 04:49:30;;;;;;;0.70;0.70;;;;;;;17.37;100.00;-4193.44;5040667;28;22070;-72
2021/08/12 04:51:57;;;;;;;0.70;0.70;;;;;;;17.39;100.00;-3503.69;5038477;28;20450;-73
2021/08/12 04:54:24;;;;;;;0.80;0.80;;;;;;;17.39;100.00;-2946.19;5049847;28;20472;-73
2021/08/12 04:56:51;;;;;;;0.70;0.70;;;;;;;17.39;100.00;-2307.13;5052002;28;20904;-73
2021/08/12 04:59:19;;;;;;;0.70;0.60;;;;;;;17.38;100.00;-1680.69;5051559;28;20455;-72
2021/08/12 05:01:46;;;;;;;0.70;0.60;;;;;;;17.35;100.00;-1151.03;5053945;28;20460;-70
2021/08/12 05:04:15;;;;;;;0.70;0.67;;;;;;;17.39;100.00;-496.09;5037744;28;20578;-73
2021/08/12 05:06:42;;;;;;;0.70;0.60;;;;;;;17.38;100.00;-22.25;5054768;28;20463;-72
2021/08/12 05:09:09;;;;;;;0.70;0.60;;;;;;;17.30;100.00;318.59;5055213;28;20467;-73
2021/08/12 05:11:36;;;;;;;0.70;0.70;;;;;;;17.33;100.00;708.69;5054432;28;20521;-73
2021/08/12 05:14:04;;;;;;;0.70;0.60;;;;;;;17.35;100.00;1547.50;5054788;28;20529;-73
2021/08/12 05:16:33;;;;;;;0.70;0.60;;;;;;;17.36;100.00;2080.44;5055617;28;20449;-73
2021/08/12 05:19:00;;;;;;;0.70;0.60;;;;;;;17.31;100.00;2679.03;5037891;28;20450;-73
2021/08/12 05:21:28;;;;;;;0.70;0.60;;;;;;;17.32;100.00;3130.53;5054298;28;20543;-73
2021/08/12 05:23:56;;;;;;;0.70;0.60;;;;;;;17.29;100.00;3543.38;5054100;28;20554;-73
2021/08/12 05:26:23;;;;;;;0.67;0.60;;;;;;;17.35;100.00;3885.97;5054093;28;20445;-73
2021/08/12 05:28:51;;;;;;;0.70;0.60;;;;;;;17.36;100.00;4245.75;5054246;28;21050;-73
2021/08/12 05:31:18;;;;;;;0.70;0.60;;;;;;;17.43;100.00;4542.66;5053839;28;20435;-73
2021/08/12 05:33:46;;;;;;;0.70;0.60;;;;;;;17.53;100.00;4827.41;5055545;28;20430;-73
2021/08/12 05:36:13;;;;;;;0.70;0.70;;;;;;;17.62;100.00;5084.03;5037328;28;20776;-73
2021/08/12 05:38:40;;;;;;;0.70;0.60;;;;;;;17.76;100.00;5653.13;5054082;28;20464;-73
2021/08/12 05:41:07;;;;;;;0.70;0.60;;;;;;;17.85;100.00;6336.69;5053887;28;20443;-74
2021/08/12 05:43:35;;;;;;;0.70;0.60;;;;;;;17.98;100.00;7251.22;5034400;28;20521;-73
2021/08/12 05:46:05;;;;;;;0.70;0.67;;;;;;;18.15;100.00;8182.69;5033119;28;20454;-73
2021/08/12 05:48:34;;;;;;;0.70;0.70;;;;;;;18.27;100.00;9187.97;5037595;28;20480;-73
2021/08/12 05:51:02;;;;;;;0.70;0.70;;;;;;;18.38;100.00;10180.88;5053978;28;20443;-73
2021/08/12 05:53:30;;;;;;;0.70;0.70;;;;;;;18.46;100.00;11243.09;5034834;28;20470;-73
2021/08/12 05:55:58;;;;;;;0.77;0.77;;;;;;;18.41;100.00;12004.97;5035164;28;20411;-73
2021/08/12 05:58:25;;;;;;;0.70;0.70;;;;;;;18.43;100.00;12956.19;5035379;28;20460;-73
2021/08/12 06:00:52;;;;;;;0.80;0.80;;;;;;;18.51;100.00;13896.41;5033350;28;20937;-73
2021/08/12 06:03:21;;;;;;;0.70;0.60;;;;;;;18.43;100.00;14488.75;5050674;28;20435;-73
2021/08/12 06:05:54;;;;;;;0.70;0.70;;;;;;;18.48;100.00;15359.53;5037192;28;20428;-73
2021/08/12 06:08:23;;;;;;;0.80;0.70;;;;;;;18.52;100.00;16268.84;5034968;28;20505;-73
2021/08/12 06:10:52;;;;;;;0.80;0.70;;;;;;;18.55;100.00;17224.53;5033015;28;20449;-73
2021/08/12 06:13:19;;;;;;;0.80;0.70;;;;;;;18.72;100.00;18349.72;5050200;28;20439;-74
2021/08/12 06:15:47;;;;;;;0.70;0.70;;;;;;;18.86;100.00;19438.56;5039951;28;20451;-73
2021/08/12 06:18:15;;;;;;;0.80;0.70;;;;;;;19.01;100.00;20429.00;5040344;28;20960;-74
2021/08/12 06:20:43;;;;;;;0.70;0.67;;;;;;;19.27;100.00;22067.59;5049537;28;20478;-73
2021/08/12 06:23:11;;;;;;;0.70;0.70;;;;;;;19.46;100.00;23522.09;5052812;28;20830;-73
2021/08/12 06:25:41;;;;;;;0.70;0.70;;;;;;;19.53;100.00;24705.16;5036718;28;20485;-73
2021/08/12 06:28:10;;;;;;;0.80;0.73;;;;;;;19.54;100.00;25952.47;5053008;28;20521;-73
2021/08/12 06:30:37;;;;;;;0.70;0.70;;;;;;;19.47;100.00;26698.94;5047105;28;20544;-74
2021/08/12 06:33:05;;;;;;;0.70;0.60;;;;;;;19.46;100.00;27814.59;5045928;28;20524;-73
2021/08/12 06:35:34;;;;;;;0.70;0.70;;;;;;;19.59;100.00;29105.88;5052985;28;20424;-74
2021/08/12 06:38:03;;;;;;;0.73;0.70;;;;;;;19.59;100.00;29758.59;5052831;28;20474;-74
2021/08/12 06:40:31;;;;;;;0.70;0.60;;;;;;;19.76;100.00;30281.44;5052586;28;20952;-74
2021/08/12 06:43:00;;;;;;;1.20;1.10;;;;;;;20.01;100.00;30801.47;5040108;28;20444;-74
2021/08/12 06:45:30;;;;;;;0.70;0.60;;;;;;;20.34;100.00;31509.88;5042713;28;20546;-74
2021/08/12 06:48:02;;;;;;;0.70;0.60;;;;;;;20.74;100.00;31320.97;5035949;28;20512;-74
2021/08/12 06:50:29;;;;;;;0.70;0.67;;;;;;;20.84;100.00;28784.88;5045293;28;20457;-73
2021/08/12 06:52:58;;;;;;;0.70;0.60;;;;;;;20.81;100.00;26161.31;5044746;28;20460;-73
2021/08/12 06:55:25;;;;;;;0.70;0.70;;;;;;;21.16;100.00;22694.41;5051859;28;20519;-73
2021/08/12 06:57:52;;;;;;;0.70;0.70;;;;;;;21.12;100.00;15332.16;5035804;28;20488;-73
2021/08/12 07:00:22;;;;;;;0.80;0.70;;;;;;;21.08;100.00;3868.22;5052753;28;20454;-73
2021/08/12 07:02:49;;;;;;;0.70;0.67;;;;;;;21.01;100.00;-8988.41;5048092;28;20447;-73
2021/08/12 07:05:18;;;;;;;0.70;0.70;;;;;;;20.98;100.00;-18260.06;5040433;28;20467;-73
2021/08/12 07:07:47;;;;;;;0.70;0.70;;;;;;;21.10;100.00;-21253.09;5052249;28;20480;-74
2021/08/12 07:10:16;;;;;;;0.70;0.70;;;;;;;21.43;100.00;-21261.84;5052141;28;20970;-74
2021/08/12 07:12:43;;;;;;;0.80;0.70;;;;;;;21.38;100.00;-21260.63;5052161;28;20421;-74
2021/08/12 07:15:12;;;;;;;0.70;0.60;;;;;;;21.68;100.00;-21268.66;5035953;28;20446;-74
2021/08/12 07:17:40;;;;;;;0.80;0.70;;;;;;;21.77;100.00;-21270.84;5052112;28;20396;-74
2021/08/12 07:20:09;;;;;;;0.70;0.60;;;;;;;21.73;100.00;-21269.88;5051393;28;20444;-73
2021/08/12 07:22:38;;;;;;;0.70;0.60;;;;;;;22.15;100.00;-21281.19;5051825;28;20762;-74
2021/08/12 07:25:07;;;;;;;0.70;0.60;;;;;;;22.28;100.00;-21284.59;5035599;28;20446;-74
2021/08/12 07:27:35;;;;;;;0.70;0.60;;;;;;;22.37;100.00;-21286.91;5051933;28;20497;-74
2021/08/12 07:30:03;;;;;;;0.80;0.70;;;;;;;22.48;100.00;-21289.91;5051659;28;20774;-74
2021/08/12 07:32:32;;;;;;;0.70;0.60;;;;;;;22.41;100.00;-21288.00;5034308;28;20460;-74
2021/08/12 07:35:01;;;;;;;0.70;0.60;;;;;;;22.47;100.00;-21289.50;5051760;28;20829;-74
2021/08/12 07:37:28;;;;;;;0.70;0.70;;;;;;;22.59;100.00;-21292.78;5051820;28;20827;-74
2021/08/12 07:39:57;;;;;;;0.70;0.70;;;;;;;22.83;100.00;-21299.31;5051255;28;20498;-74
2021/08/12 07:42:24;;;;;;;0.70;0.60;;;;;;;22.74;100.00;-21296.72;5035387;28;20440;-74
2021/08/12 07:44:51;;;;;;;0.77;0.70;;;;;;;22.71;100.00;-21295.91;5050171;28;20425;-74
2021/08/12 07:47:18;;;;;;;0.70;0.60;;;;;;;22.61;100.00;-21293.44;5051464;28;20421;-74
2021/08/12 07:49:48;;;;;;;0.80;0.70;;;;;;;22.94;100.00;-21302.03;5051929;28;20463;-74
2021/08/12 07:52:17;;;;;;;0.80;0.70;;;;;;;23.08;100.00;-21305.97;5052853;28;20427;-74
2021/08/12 07:54:46;;;;;;;0.70;0.60;;;;;;;23.31;100.00;-21311.97;5052598;28;20471;-74
2021/08/12 07:57:13;;;;;;;0.70;0.60;;;;;;;23.23;100.00;-21309.78;5052716;28;20478;-75
2021/08/12 07:59:43;;;;;;;1.23;1.13;;;;;;;23.46;100.00;-21316.03;5052770;28;20519;-74
2021/08/12 08:02:10;;;;;;;0.80;0.60;;;;;;;24.04;100.00;-21331.38;5051412;28;20482;-74
2021/08/12 08:04:38;;;;;;;1.20;1.00;;;;;;;24.21;100.00;-21335.88;5037560;28;20441;-74
2021/08/12 08:07:05;;;;;;;0.70;0.60;;;;;;;24.31;100.00;-21338.59;5031886;28;20425;-74
2021/08/12 08:09:37;;;;;;;0.70;0.60;;;;;;;24.32;100.00;-21338.88;5042585;28;20596;-74
2021/08/12 08:12:07;;;;;;;0.70;0.60;;;;;;;24.52;100.00;-21344.16;5051955;28;20459;-74
2021/08/12 08:14:35;;;;;;;0.80;0.60;;;;;;;24.42;100.00;-21341.59;5051485;28;20498;-74
2021/08/12 08:17:02;;;;;;;0.70;0.60;;;;;;;24.52;100.00;-21344.31;5033636;28;20514;-75
2021/08/12 08:19:29;;;;;;;0.80;0.70;;;;;;;24.70;100.00;-21348.91;5031571;28;20443;-74
2021/08/12 08:21:56;;;;;;;0.70;0.60;;;;;;;24.81;100.00;-21352.03;5015444;28;20429;-73
2021/08/12 08:24:27;;;;;;;0.70;0.70;;;;;;;24.67;100.00;-21348.22;5047701;28;20529;-74
2021/08/12 08:26:56;;;;;;;0.73;0.63;;;;;;;24.92;100.00;-21354.75;5050539;28;20448;-75
2021/08/12 08:29:22;;;;;;;0.70;0.60;;;;;;;24.94;100.00;-21355.41;5045556;28;20465;-74
2021/08/12 08:31:49;;;;;;;0.70;0.60;;;;;;;25.09;100.00;-21359.22;5034323;28;20831;-74
2021/08/12 08:34:16;;;;;;;0.70;0.60;;;;;;;24.68;100.00;-21348.50;5047398;28;20493;-74
2021/08/12 08:36:43;;;;;;;0.70;0.57;;;;;;;25.02;100.00;-21357.59;5055389;28;20979;-74
2021/08/12 08:39:11;;;;;;;0.70;0.50;;;;;;;25.21;100.00;-21362.47;5056313;28;20451;-74
2021/08/12 08:41:39;;;;;;;0.70;0.60;;;;;;;25.27;100.00;-21364.09;5038518;28;20443;-74
2021/08/12 08:44:08;;;;;;;0.70;0.60;;;;;;;25.41;100.00;-21367.91;5055211;28;20428;-75
2021/08/12 08:46:37;;;;;;;0.70;0.50;;;;;;;25.40;100.00;-21367.50;5054708;28;20839;-74
2021/08/12 08:49:06;;;;;;;0.70;0.60;;;;;;;25.50;100.00;-21370.34;5055976;28;20463;-74
2021/08/12 08:51:33;;;;;;;0.70;0.60;;;;;;;25.78;100.00;-21377.66;5048344;28;20444;-74
2021/08/12 08:54:01;;;;;;;0.70;0.60;;;;;;;26.08;100.00;-21385.50;5054733;28;20478;-75
2021/08/12 08:56:29;;;;;;;0.70;0.60;;;;;;;26.55;100.00;-21397.97;5038358;28;20763;-75
2021/08/12 08:58:56;;;;;;;0.70;0.50;;;;;;;27.34;100.00;-21419.06;5055872;28;20424;-75
2021/08/12 09:01:25;;;;;;;0.70;0.50;;;;;;;27.96;100.00;-21435.28;5056029;28;20416;-75
2021/08/12 09:03:53;;;;;;;0.70;0.50;;;;;;;27.79;100.00;-21430.97;5055618;28;20470;-75
2021/08/12 09:06:20;;;;;;;0.70;0.50;;;;;;;28.17;100.00;-21440.94;5053984;28;20875;-72
2021/08/12 09:08:47;;;;;;;0.80;0.60;;;;;;;28.77;100.00;-21456.75;5055286;28;20468;-75
2021/08/12 09:11:14;;;;;;;0.70;0.50;;;;;;;29.37;100.00;-21472.66;5055933;28;20889;-71
2021/08/12 09:13:42;;;;;;;0.70;0.50;;;;;;;29.07;100.00;-21464.69;5054012;28;20448;-75
2021/08/12 09:16:33;;;;;;;0.80;0.70;;;;;;;29.42;100.00;-21474.00;5056223;28;20431;-75
2021/08/12 09:19:23;;;;;;;2.07;1.37;;;;;;;29.03;100.00;-21463.63;5056040;28;20519;-75
2021/08/12 09:21:53;;;;;;;0.70;0.50;;;;;;;28.63;100.00;-21453.09;5055654;28;20409;-74
2021/08/12 09:24:21;;;;;;;0.70;0.50;;;;;;;28.41;100.00;-21447.44;5055464;28;20482;-74
2021/08/12 09:26:48;;;;;;;0.70;0.50;;;;;;;27.91;100.00;-21434.19;5052683;28;20451;-77
2021/08/12 09:29:27;;;;;;;0.70;0.50;;;;;;;27.99;100.00;-21436.22;5037888;28;20472;-74
2021/08/12 09:32:00;;;;;;;1.87;0.83;;;;;;;28.07;100.00;-21438.38;5054172;28;20494;-75
2021/08/12 09:34:38;;;;;;;0.70;0.50;;;;;;;28.87;100.00;-21459.56;5054401;28;20432;-75
2021/08/12 09:37:07;;;;;;;0.70;0.50;;;;;;;28.54;100.00;-21450.81;5054219;28;20482;-74
2021/08/12 09:39:35;;;;;;;0.70;0.50;;;;;;;28.76;100.00;-21456.59;5053866;28;20452;-75
2021/08/12 09:42:03;;;;;;;0.70;0.57;;;;;;;28.60;100.00;-21452.28;5055037;28;20835;-73
2021/08/12 09:44:42;;;;;;;0.70;0.50;;;;;;;28.65;100.00;-21453.78;5054217;28;20460;-76
2021/08/12 09:47:12;;;;;;;0.70;0.50;;;;;;;28.40;100.00;-21447.16;5035127;28;20431;-75
2021/08/12 09:49:45;;;;;;;0.70;0.50;;;;;;;28.38;100.00;-21446.63;5052407;28;20471;-75
2021/08/12 09:52:33;;;;;;;0.70;0.50;;;;;;;28.43;100.00;-21447.84;5055569;28;20436;-72
2021/08/12 09:55:08;;;;;;;0.70;0.50;;;;;;;29.10;100.00;-21465.50;5019739;28;20440;-72
2021/08/12 09:57:47;;;;;;;0.70;0.50;;;;;;;28.94;100.00;-21461.31;5035436;28;20471;-75
2021/08/12 10:00:32;;;;;;;0.70;0.50;;;;;;;30.16;100.00;-21493.50;5017641;28;20472;-75
2021/08/12 10:03:23;;;;;;;1.20;0.80;;;;;;;29.62;100.00;-21479.25;5034216;28;20451;-75
2021/08/12 10:05:52;;;;;;;0.70;0.50;;;;;;;30.38;100.00;-21499.31;5044768;28;20424;-75
2021/08/12 10:08:33;;;;;;;0.70;0.50;;;;;;;30.11;100.00;-21492.03;5019525;28;20472;-74
2021/08/12 10:11:20;;;;;;;0.70;0.50;;;;;;;30.17;100.00;-21493.78;5047402;28;20472;-71
2021/08/12 10:13:49;;;;;;;0.70;0.50;;;;;;;30.08;100.00;-21491.50;5052361;28;20467;-75
2021/08/12 10:16:18;;;;;;;0.70;0.50;;;;;;;30.21;100.00;-21494.88;5054646;28;20405;-75
2021/08/12 10:18:48;;;;;;;0.70;0.50;;;;;;;29.81;100.00;-21484.34;5053145;28;20444;-75
2021/08/12 10:21:17;;;;;;;0.70;0.50;;;;;;;29.95;100.00;-21488.00;5054348;28;20428;-73
2021/08/12 10:23:46;;;;;;;0.80;0.60;;;;;;;30.35;100.00;-21498.50;5047116;28;21001;-71
2021/08/12 10:26:17;;;;;;;1.30;1.20;;;;;;;32.10;100.00;-21544.56;5032955;28;20425;-74
2021/08/12 10:28:47;;;;;;;0.80;0.50;;;;;;;31.80;100.00;-21536.50;5038756;28;20964;-72
2021/08/12 10:31:18;;;;;;;0.80;0.50;;;;;;;32.35;100.00;-21551.00;5052884;28;20482;-72
2021/08/12 10:33:47;;;;;;;1.13;0.67;;;;;;;31.09;100.00;-21517.97;5054000;28;20436;-72
2021/08/12 10:36:16;;;;;;;0.80;0.50;;;;;;;31.55;100.00;-21530.06;5051507;28;20851;-75
2021/08/12 10:38:43;;;;;;;0.80;0.50;;;;;;;31.01;100.00;-21515.97;5053151;28;20452;-75
2021/08/12 10:41:15;;;;;;;0.80;0.50;;;;;;;30.94;100.00;-21513.97;5052615;28;20421;-72
2021/08/12 10:43:45;;;;;;;0.80;0.50;;;;;;;30.75;100.00;-21508.97;5050422;28;20444;-72
2021/08/12 10:46:12;;;;;;;0.80;0.50;;;;;;;29.54;100.00;-21477.09;5046963;28;20474;-72
2021/08/12 10:48:39;;;;;;;0.80;0.53;;;;;;;29.84;100.00;-21485.16;5053715;28;21053;-72
2021/08/12 10:51:12;;;;;;;0.80;0.60;;;;;;;29.39;100.00;-21473.06;5052462;28;20512;-72
2021/08/12 10:53:40;;;;;;;0.80;0.50;;;;;;;29.11;100.00;-21465.78;5052952;28;20513;-75
2021/08/12 10:56:13;;;;;;;1.10;1.00;;;;;;;28.04;100.00;-21437.56;5035800;28;20436;-74
2021/08/12 10:59:10;;;;;;;0.80;0.70;;;;;;;28.05;100.00;-21437.72;5052563;28;20873;-75
2021/08/12 11:01:39;;;;;;;0.70;0.50;;;;;;;27.88;100.00;-21433.41;4968656;28;20455;-74
2021/08/12 11:04:07;;;;;;;0.70;0.50;;;;;;;27.69;100.00;-21428.41;5035993;28;20448;-75
2021/08/12 11:06:45;;;;;;;0.70;0.50;;;;;;;27.82;100.00;-21431.78;5052320;28;21011;-75
2021/08/12 11:09:14;;;;;;;0.70;0.50;;;;;;;27.57;100.00;-21425.00;5049931;28;20855;-71
2021/08/12 11:12:05;;;;;;;0.70;0.50;;;;;;;27.45;100.00;-21422.03;5053287;28;20506;-74
2021/08/12 11:14:50;;;;;;;0.70;0.50;;;;;;;27.37;100.00;-21419.75;5051976;28;20439;-75
2021/08/12 11:17:18;;;;;;;0.70;0.50;;;;;;;27.43;100.00;-21421.50;5037539;28;20474;-75
2021/08/12 11:19:45;;;;;;;0.80;0.60;;;;;;;27.14;100.00;-21413.66;5032161;28;20531;-74
2021/08/12 11:22:36;;;;;;;0.70;0.60;;;;;;;26.90;100.00;-21407.44;5033264;28;20457;-74
2021/08/12 11:25:07;;;;;;;0.70;0.50;;;;;;;27.18;100.00;-21414.75;5032439;28;20487;-74
2021/08/12 11:27:43;;;;;;;0.70;0.50;;;;;;;27.66;100.00;-21427.59;5032931;28;20467;-75
2021/08/12 11:30:39;;;;;;;0.70;0.60;;;;;;;28.33;100.00;-21445.28;5031791;28;20514;-72
2021/08/12 11:33:32;;;;;;;0.70;0.50;;;;;;;28.20;100.00;-21441.75;5037997;28;20463;-73